Stormwatcher's Retreat Logo




                  Temp     Hi    Low   Out    Dew  Wind  Wind   Wind    Hi    Hi   Wind   Heat    THW   THSW                Rain  Solar   Solar Hi Solar   UV    UV    Hi     Heat    Cool    In     In    In     In     In   In Air          Wind  Wind    ISS   Arc.
  Date    Time     Out   Temp   Temp   Hum    Pt. Speed   Dir    Run Speed   Dir  Chill  Index  Index  Index   Bar    Rain  Rate   Rad.  Energy    Rad.  Index  Dose   UV     D-D     D-D    Temp   Hum    Dew   Heat    EMC Density     ET   Samp   Tx   Recept  Int.
------------------------------------------------------------------------------------------------------------------------------------------------------------------------------------------------------------------------------------------------------------------------
 9/05/26 12:10a   57.7   57.7   57.5    96   56.6   0.0   NNE   0.00   1.0   NNE   57.7   58.0   58.0   55.8  30.000  0.00  0.00     0     0.00      0     0.0  0.00   0.0   0.051   0.000   72.5    58   56.9   72.5  10.65  .0736    0.000   202    7    100.0   10 
 9/05/26 12:20a   57.4   57.7   57.4    95   56.0   0.0   NNE   0.00   1.0   NNE   57.4   57.6   57.6   55.4  30.004  0.00  0.00     0     0.00      0     0.0  0.00   0.0   0.053   0.000   72.5    57   56.4   72.4  10.45  .0736    0.000   202    7    100.0   10 
 9/05/26 12:30a   57.4   57.5   57.4    96   56.3   0.0   ---   0.00   0.0   ---   57.4   57.7   57.7   55.5  30.005  0.00  0.00     0     0.00      0     0.0  0.00   0.0   0.053   0.000   72.5    57   56.4   72.4  10.45  .0736    0.000   204    7    100.0   10 
 9/05/26 12:40a   57.4   57.5   57.4    96   56.3   0.0   ESE   0.00   1.0   ESE   57.4   57.7   57.7   55.5  30.006  0.00  0.00     0     0.00      0     0.0  0.00   0.0   0.053   0.000   72.5    57   56.4   72.4  10.45  .0736    0.000   201    7    100.0   10 
 9/05/26 12:50a   57.5   57.5   57.4    96   56.4   0.0    SE   0.00   2.0    SE   57.5   57.8   57.8   55.6  30.007  0.00  0.00     0     0.00      0     0.0  0.00   0.0   0.052   0.000   72.5    57   56.4   72.4  10.45  .0736    0.000   203    7    100.0   10 
 9/05/26  1:00a   57.3   57.6   57.3    96   56.2   0.0   SSE   0.00   1.0   SSE   57.3   57.6   57.6   55.4  30.009  0.00  0.00     0     0.00      0     0.0  0.00   0.0   0.053   0.000   72.5    57   56.4   72.4  10.45  .0737    0.000   202    7    100.0   10 
 9/05/26  1:10a   57.2   57.4   57.2    96   56.1   0.0   SSE   0.00   2.0   SSE   57.2   57.5   57.5   55.3  30.013  0.00  0.00     0     0.00      0     0.0  0.00   0.0   0.054   0.000   72.5    57   56.4   72.4  10.45  .0737    0.000   201    7    100.0   10 
 9/05/26  1:20a   57.5   57.5   57.2    96   56.4   1.0     S   0.17   6.0   SSW   57.5   57.8   57.8   55.6  30.014  0.00  0.00     0     0.00      0     0.0  0.00   0.0   0.052   0.000   72.4    57   56.3   72.3  10.45  .0737    0.000   204    7    100.0   10 
 9/05/26  1:30a   57.5   57.6   57.4    96   56.4   2.0     S   0.33   6.0   SSW   57.5   57.8   57.8   55.6  30.016  0.00  0.00     0     0.00      0     0.0  0.00   0.0   0.052   0.000   72.4    57   56.3   72.3  10.45  .0737    0.000   201    7    100.0   10 
 9/05/26  1:40a   57.3   57.5   57.3    96   56.2   0.0     S   0.00   1.0     S   57.3   57.6   57.6   55.4  30.016  0.00  0.00     0     0.00      0     0.0  0.00   0.0   0.053   0.000   72.4    57   56.3   72.3  10.45  .0737    0.000   204    7    100.0   10 
 9/05/26  1:50a   57.2   57.3   57.2    96   56.1   0.0     S   0.00   1.0     S   57.2   57.5   57.5   55.3  30.015  0.00  0.00     0     0.00      0     0.0  0.00   0.0   0.054   0.000   72.4    57   56.3   72.3  10.45  .0737    0.000   203    7    100.0   10 
 9/05/26  2:00a   57.2   57.3   57.2    96   56.1   0.0     S   0.00   1.0     S   57.2   57.5   57.5   55.3  30.015  0.00  0.00     0     0.00      0     0.0  0.00   0.0   0.054   0.000   72.3    57   56.2   72.1  10.46  .0737    0.000   203    7    100.0   10 
 9/05/26  2:10a   57.4   57.4   57.2    96   56.3   0.0     S   0.00   1.0     S   57.4   57.7   57.7   55.5  30.019  0.00  0.00     0     0.00      0     0.0  0.00   0.0   0.053   0.000   72.3    57   56.2   72.1  10.46  .0737    0.000   203    7    100.0   10 
 9/05/26  2:20a   57.4   57.5   57.3    97   56.6   0.0     S   0.00   1.0     S   57.4   57.7   57.7   55.5  30.020  0.00  0.00     0     0.00      0     0.0  0.00   0.0   0.053   0.000   72.3    57   56.2   72.1  10.46  .0737    0.000   203    7    100.0   10 
 9/05/26  2:30a   57.5   57.5   57.4    97   56.7   1.0   SSE   0.17   4.0   SSE   57.5   57.8   57.8   55.6  30.021  0.00  0.00     0     0.00      0     0.0  0.00   0.0   0.052   0.000   72.3    57   56.2   72.1  10.46  .0737    0.000   203    7    100.0   10 
 9/05/26  2:40a   57.5   57.6   57.5    97   56.7   0.0     S   0.00   2.0     S   57.5   57.8   57.8   55.6  30.022  0.00  0.00     0     0.00      0     0.0  0.00   0.0   0.052   0.000   72.3    57   56.2   72.1  10.46  .0737    0.000   204    7    100.0   10 
 9/05/26  2:50a   57.4   57.5   57.4    97   56.6   0.0     S   0.00   4.0     S   57.4   57.7   57.7   55.5  30.021  0.00  0.00     0     0.00      0     0.0  0.00   0.0   0.053   0.000   72.2    57   56.1   72.0  10.46  .0737    0.000   204    7    100.0   10 
 9/05/26  3:00a   57.4   57.5   57.4    97   56.6   1.0   SSE   0.17   6.0     S   57.4   57.7   57.7   55.5  30.022  0.00  0.00     0     0.00      0     0.0  0.00   0.0   0.053   0.000   72.2    57   56.1   72.0  10.46  .0737    0.000   203    7    100.0   10 
 9/05/26  3:10a   57.3   57.5   57.3    97   56.5   2.0     S   0.33   5.0   SSE   57.3   57.6   57.6   55.4  30.021  0.00  0.00     0     0.00      0     0.0  0.00   0.0   0.053   0.000   72.2    57   56.1   72.0  10.46  .0737    0.000   202    7    100.0   10 
 9/05/26  3:20a   57.3   57.4   57.3    97   56.5   1.0    SE   0.17   4.0     S   57.3   57.6   57.6   55.4  30.019  0.00  0.00     0     0.00      0     0.0  0.00   0.0   0.053   0.000   72.2    57   56.1   72.0  10.46  .0737    0.000   202    7    100.0   10 
 9/05/26  3:30a   57.3   57.3   57.2    97   56.5   0.0   SSE   0.00   1.0   SSE   57.3   57.6   57.6   55.4  30.021  0.00  0.00     0     0.00      0     0.0  0.00   0.0   0.053   0.000   72.2    57   56.1   72.0  10.46  .0737    0.000   203    7    100.0   10 
 9/05/26  3:40a   57.3   57.3   57.2    97   56.5   0.0   SSE   0.00   1.0   SSE   57.3   57.6   57.6   55.4  30.024  0.00  0.00     0     0.00      0     0.0  0.00   0.0   0.053   0.000   72.2    57   56.1   72.0  10.46  .0737    0.000   202    7    100.0   10 
 9/05/26  3:50a   57.3   57.3   57.2    97   56.5   0.0   SSE   0.00   3.0    SE   57.3   57.6   57.6   55.4  30.023  0.00  0.00     0     0.00      0     0.0  0.00   0.0   0.053   0.000   72.1    57   56.0   71.8  10.47  .0738    0.000   202    7    100.0   10 
 9/05/26  4:00a   57.1   57.2   57.1    97   56.3   0.0   SSE   0.00   2.0   SSE   57.1   57.4   57.4   55.2  30.024  0.00  0.00     0     0.00      0     0.0  0.00   0.0   0.055   0.000   72.1    57   56.0   71.8  10.47  .0738    0.000   204    7    100.0   10 
 9/05/26  4:10a   57.2   57.2   57.1    97   56.4   0.0   SSE   0.00   1.0   SSE   57.2   57.5   57.5   55.3  30.023  0.00  0.00     0     0.00      0     0.0  0.00   0.0   0.054   0.000   72.1    57   56.0   71.8  10.47  .0738    0.000   203    7    100.0   10 
 9/05/26  4:20a   57.2   57.3   57.2    97   56.4   0.0   SSE   0.00   1.0   SSE   57.2   57.5   57.5   55.3  30.022  0.00  0.00     0     0.00      0     0.0  0.00   0.0   0.054   0.000   72.1    57   56.0   71.8  10.47  .0738    0.000   201    7    100.0   10 
 9/05/26  4:30a   57.2   57.2   57.2    97   56.4   0.0     E   0.00   1.0     E   57.2   57.5   57.5   55.3  30.025  0.00  0.00     0     0.00      0     0.0  0.00   0.0   0.054   0.000   72.0    57   55.9   71.7  10.47  .0738    0.000   201    7    100.0   10 
 9/05/26  4:40a   57.2   57.2   57.2    97   56.4   0.0   ESE   0.00   2.0   ESE   57.2   57.5   57.5   55.3  30.026  0.00  0.00     0     0.00      0     0.0  0.00   0.0   0.054   0.000   72.0    57   55.9   71.7  10.47  .0738    0.000   203    7    100.0   10 
 9/05/26  4:50a   57.1   57.2   57.1    97   56.3   0.0   ESE   0.00   1.0   ESE   57.1   57.4   57.4   55.2  30.022  0.00  0.00     0     0.00      0     0.0  0.00   0.0   0.055   0.000   72.0    57   55.9   71.7  10.47  .0738    0.000   203    7    100.0   10 
 9/05/26  5:00a   57.0   57.2   57.0    97   56.2   0.0   ESE   0.00   2.0   ESE   57.0   57.3   57.3   55.1  30.022  0.00  0.00     0     0.00      0     0.0  0.00   0.0   0.056   0.000   72.0    57   55.9   71.7  10.47  .0738    0.000   203    7    100.0   10 
 9/05/26  5:10a   57.0   57.1   57.0    97   56.2   0.0   ESE   0.00   2.0   ESE   57.0   57.3   57.3   55.1  30.026  0.00  0.00     0     0.00      0     0.0  0.00   0.0   0.056   0.000   71.9    57   55.8   71.5  10.47  .0738    0.000   203    7    100.0   10 
 9/05/26  5:20a   57.0   57.1   57.0    97   56.2   0.0   ---   0.00   0.0   ---   57.0   57.3   57.3   55.1  30.027  0.00  0.00     0     0.00      0     0.0  0.00   0.0   0.056   0.000   71.9    57   55.8   71.5  10.47  .0738    0.000   204    7    100.0   10 
 9/05/26  5:30a   56.9   57.1   56.9    97   56.1   0.0   ---   0.00   0.0   ---   56.9   57.2   57.2   55.0  30.029  0.00  0.00     0     0.00      0     0.0  0.00   0.0   0.056   0.000   71.9    57   55.8   71.5  10.47  .0738    0.000   203    7    100.0   10 
 9/05/26  5:40a   57.0   57.0   56.9    97   56.2   0.0   ESE   0.00   1.0   ESE   57.0   57.3   57.3   55.1  30.028  0.00  0.00     0     0.00      0     0.0  0.00   0.0   0.056   0.000   71.9    57   55.8   71.5  10.47  .0738    0.000   204    7    100.0   10 
 9/05/26  5:50a   57.0   57.1   56.9    97   56.2   0.0   ESE   0.00   1.0   ESE   57.0   57.3   57.3   55.1  30.030  0.00  0.00     0     0.00      0     0.0  0.00   0.0   0.056   0.000   71.8    57   55.7   71.4  10.48  .0738    0.000   204    7    100.0   10 
 9/05/26  6:00a   57.2   57.2   57.0    97   56.4   0.0   ESE   0.00   2.0   ESE   57.2   57.5   57.5   55.3  30.034  0.00  0.00     0     0.00      0     0.0  0.00   0.0   0.054   0.000   71.8    57   55.7   71.4  10.48  .0738    0.000   199    7    100.0   10 
 9/05/26  6:10a   57.1   57.2   57.0    97   56.3   0.0    SE   0.00   2.0   ESE   57.1   57.4   57.4   55.2  30.031  0.00  0.00     0     0.00      0     0.0  0.00   0.0   0.055   0.000   71.8    57   55.7   71.4  10.48  .0738    0.000   203    7    100.0   10 
 9/05/26  6:20a   57.0   57.1   57.0    97   56.2   1.0     S   0.17   3.0     S   57.0   57.3   57.3   55.1  30.029  0.00  0.00     0     0.00      0     0.0  0.00   0.0   0.056   0.000   71.7    57   55.7   71.2  10.48  .0738    0.000   203    7    100.0   10 
 9/05/26  6:30a   57.0   57.1   56.9    97   56.2   0.0     S   0.00   2.0     S   57.0   57.3   57.3   55.1  30.031  0.00  0.00     0     0.00      0     0.0  0.00   0.0   0.056   0.000   71.7    57   55.7   71.2  10.48  .0738    0.000   202    7    100.0   10 
 9/05/26  6:40a   57.1   57.1   56.9    97   56.3   1.0     S   0.17   2.0     S   57.1   57.4   57.4   55.2  30.034  0.00  0.00     0     0.00      0     0.0  0.00   0.0   0.055   0.000   71.7    58   56.1   71.3  10.68  .0738    0.000   203    7    100.0   10 
 9/05/26  6:50a   57.1   57.2   57.0    97   56.3   0.0     S   0.00   3.0     S   57.1   57.4   57.4   55.3  30.033  0.00  0.00     6     0.09      9     0.0  0.00   0.0   0.055   0.000   71.7    58   56.1   71.3  10.68  .0738    0.000   205    7    100.0   10 
 9/05/26  7:00a   56.9   57.1   56.9    97   56.1   0.0     S   0.00   2.0     S   56.9   57.2   57.2   55.3  30.034  0.00  0.00    14     0.20     21     0.0  0.00   0.0   0.056   0.000   71.6    58   56.0   71.2  10.69  .0739    0.000   204    7    100.0   10 
 9/05/26  7:10a   56.8   56.9   56.8    97   56.0   0.0     S   0.00   2.0     S   56.8   57.1   57.1   55.7  30.031  0.00  0.00    37     0.53     51     0.0  0.00   0.0   0.057   0.000   71.6    58   56.0   71.2  10.69  .0738    0.000   203    7    100.0   10 
 9/05/26  7:20a   56.9   57.0   56.8    97   56.1   0.0     S   0.00   2.0     S   56.9   57.2   57.2   58.1  30.031  0.00  0.00    58     0.83     70     0.0  0.00   0.0   0.056   0.000   71.7    58   56.1   71.3  10.68  .0738    0.000   205    7    100.0   10 
 9/05/26  7:30a   57.0   57.0   56.9    97   56.2   0.0     S   0.00   1.0     S   57.0   57.3   57.3   59.1  30.035  0.00  0.00    79     1.13     88     0.0  0.00   0.0   0.056   0.000   71.6    58   56.0   71.2  10.69  .0739    0.000   203    7    100.0   10 
 9/05/26  7:40a   57.2   57.2   57.0    97   56.4   0.0     S   0.00   2.0     S   57.2   57.5   57.5   59.6  30.037  0.00  0.00    87     1.25     90     0.0  0.00   0.0   0.054   0.000   71.7    58   56.1   71.3  10.68  .0738    0.000   203    7    100.0   10 
 9/05/26  7:50a   57.1   57.2   57.0    97   56.3   0.0   ESE   0.00   3.0   ESE   57.1   57.4   57.4   59.4  30.039  0.00  0.00    85     1.22     88     0.0  0.00   0.0   0.055   0.000   71.7    58   56.1   71.3  10.68  .0738    0.000   201    7    100.0   10 
 9/05/26  8:00a   57.2   57.3   57.1    97   56.4   0.0     E   0.00   2.0     E   57.2   57.5   57.5   59.9  30.040  0.00  0.00    98     1.40    111     0.0  0.00   0.0   0.054   0.000   71.7    58   56.1   71.3  10.68  .0738    0.001   204    7    100.0   10 
 9/05/26  8:10a   57.5   57.5   57.2    97   56.7   0.0   ESE   0.00   2.0   ESE   57.5   57.8   57.8   61.6  30.040  0.00  0.00   138     1.98    148     0.0  0.00   0.0   0.052   0.000   71.7    58   56.1   71.3  10.68  .0738    0.000   203    7    100.0   10 
 9/05/26  8:20a   57.7   57.7   57.4    97   56.9   0.0     E   0.00   3.0     E   57.7   58.0   58.0   61.9  30.041  0.00  0.00   147     2.11    163     0.0  0.00   0.0   0.051   0.000   71.8    58   56.2   71.5  10.68  .0738    0.000   203    7    100.0   10 
 9/05/26  8:30a   57.9   57.9   57.7    97   57.1   0.0     E   0.00   2.0     E   57.9   58.2   58.2   62.0  30.043  0.00  0.00   145     2.08    158     0.0  0.00   0.0   0.049   0.000   71.8    58   56.2   71.5  10.68  .0738    0.000   201    7    100.0   10 
 9/05/26  8:40a   58.1   58.1   57.8    97   57.3   0.0   ESE   0.00   2.0   ESE   58.1   58.4   58.4   63.8  30.045  0.00  0.00   198     2.84    251     0.4  0.03   0.5   0.048   0.000   71.9    58   56.3   71.6  10.67  .0738    0.000   204    7    100.0   10 
 9/05/26  8:50a   57.8   58.2   57.8    97   57.0   1.0     S   0.17   6.0   SSE   57.8   58.1   58.1   63.4  30.042  0.00  0.00   204     2.92    214     0.5  0.04   0.6   0.050   0.000   71.9    57   55.8   71.5  10.47  .0738    0.000   203    7    100.0   10 
 9/05/26  9:00a   57.7   57.8   57.7    97   56.9   2.0   SSW   0.33   5.0    SW   57.7   58.0   58.0   64.0  30.043  0.00  0.00   234     3.35    316     0.6  0.04   0.6   0.051   0.000   72.0    57   55.9   71.7  10.47  .0738    0.004   203    7    100.0   10 
 9/05/26  9:10a   57.5   57.8   57.5    97   56.7   2.0    SW   0.33   6.0   SSW   57.5   57.8   57.8   61.2  30.043  0.00  0.00   156     2.24    174     0.6  0.04   0.6   0.052   0.000   72.0    57   55.9   71.7  10.47  .0738    0.000   203    7    100.0   10 
 9/05/26  9:20a   56.9   57.5   56.8    97   56.1   5.0    SW   0.83  10.0    SW   56.3   57.2   56.6   58.4  30.046  0.00  0.00   109     1.56    135     0.3  0.02   0.5   0.056   0.000   72.0    57   55.9   71.7  10.47  .0738    0.000   203    7    100.0   10 
 9/05/26  9:30a   56.7   56.9   56.7    97   55.9   4.0    SW   0.67   8.0     S   56.6   57.0   56.9   59.2  30.046  0.00  0.00   129     1.85    158     0.6  0.04   0.7   0.058   0.000   72.0    57   55.9   71.7  10.47  .0738    0.000   202    7    100.0   10 
 9/05/26  9:40a   56.7   56.8   56.7    97   55.9   3.0     S   0.50   6.0   SSE   56.7   57.0   57.0   59.9  30.046  0.00  0.00   152     2.18    169     0.7  0.05   0.8   0.058   0.000   72.1    57   56.0   71.8  10.47  .0738    0.000   202    7    100.0   10 
 9/05/26  9:50a   56.9   57.0   56.7    97   56.1   2.0     S   0.33   5.0   SSE   56.9   57.2   57.2   60.1  30.046  0.00  0.00   155     2.22    163     0.8  0.06   0.9   0.056   0.000   72.1    57   56.0   71.8  10.47  .0738    0.000   202    7    100.0   10 
 9/05/26 10:00a   57.1   57.2   56.9    98   56.5   2.0   SSW   0.33   5.0   SSE   57.1   57.4   57.4   60.0  30.047  0.00  0.00   150     2.15    183     1.0  0.07   1.3   0.055   0.000   72.2    57   56.1   72.0  10.46  .0738    0.003   204    7    100.0   10 
 9/05/26 10:10a   57.2   57.2   57.1    98   56.6   2.0     S   0.33   6.0     S   57.2   57.5   57.5   61.8  30.045  0.00  0.00   220     3.15    272     1.5  0.11   1.7   0.054   0.000   72.3    57   56.2   72.1  10.46  .0738    0.000   203    7    100.0   10 
 9/05/26 10:20a   57.3   57.3   57.1    98   56.7   4.0    SW   0.67   7.0   SSW   57.3   57.6   57.6   63.4  30.048  0.00  0.00   281     4.03    297     1.7  0.12   1.8   0.053   0.000   72.3    57   56.2   72.1  10.46  .0738    0.000   203    7    100.0   10 
 9/05/26 10:30a   57.2   57.3   57.2    98   56.6   3.0    SW   0.50   7.0     S   57.2   57.5   57.5   59.5  30.050  0.00  0.00   137     1.96    195     1.4  0.10   1.4   0.054   0.000   72.3    57   56.2   72.1  10.46  .0738    0.000   202    7    100.0   10 
 9/05/26 10:40a   57.4   57.4   57.2    98   56.8   4.0    SW   0.67   7.0   ESE   57.4   57.7   57.7   64.3  30.049  0.00  0.00   331     4.74    591     2.0  0.14   2.6   0.053   0.000   72.3    57   56.2   72.1  10.46  .0738    0.000   201    7    100.0   10 
 9/05/26 10:50a   57.6   57.7   57.4    98   57.0   5.0   SSW   0.83  10.0   SSE   57.1   57.9   57.4   68.3  30.051  0.00  0.00   678     9.72    722     2.9  0.21   3.0   0.051   0.000   72.4    57   56.3   72.3  10.45  .0738    0.000   201    7    100.0   10 
 9/05/26 11:00a   57.9   57.9   57.6    98   57.3   5.0   SSW   0.83   8.0   SSE   57.5   58.3   57.9   68.7  30.051  0.00  0.00   622     8.92    738     3.0  0.21   3.3   0.049   0.000   72.4    57   56.3   72.3  10.45  .0738    0.008   204    7    100.0   10 
 9/05/26 11:10a   57.9   57.9   57.8    98   57.3   4.0   SSW   0.67   7.0   SSE   57.9   58.3   58.3   69.1  30.049  0.00  0.00   624     8.95    742     3.2  0.23   3.8   0.049   0.000   72.5    57   56.4   72.4  10.45  .0738    0.000   202    7    100.0   10 
 9/05/26 11:20a   57.8   58.0   57.8    98   57.2   4.0     S   0.67   7.0   SSW   57.8   58.2   58.2   68.4  30.049  0.00  0.00   762    10.92    874     3.7  0.26   3.8   0.050   0.000   72.6    57   56.5   72.6  10.45  .0737    0.000   203    7    100.0   10 
 9/05/26 11:30a   57.8   58.0   57.8    98   57.2   6.0   SSW   1.00  10.0   SSE   57.0   58.2   57.4   68.5  30.050  0.00  0.00   729    10.45    800     3.7  0.26   3.8   0.050   0.000   72.6    58   57.0   72.6  10.65  .0737    0.000   203    7    100.0   10 
 9/05/26 11:40a   57.9   57.9   57.7    98   57.3   6.0   SSW   1.00   9.0   SSE   57.1   58.3   57.5   68.6  30.051  0.00  0.00   739    10.59    814     3.9  0.28   4.1   0.049   0.000   72.6    58   57.0   72.6  10.65  .0737    0.000   203    7    100.0   10 
 9/05/26 11:50a   57.9   58.0   57.8    97   57.1   6.0     S   1.00  10.0     S   57.1   58.2   57.4   68.2  30.052  0.00  0.00   845    12.11    865     4.2  0.30   4.3   0.049   0.000   72.6    58   57.0   72.6  10.65  .0737    0.000   205    7    100.0   10 
 9/05/26 12:00p   58.1   58.2   57.9    97   57.3   5.0     S   0.83   8.0   ESE   57.7   58.4   58.0   69.2  30.051  0.00  0.00   764    10.95    777     3.8  0.27   4.3   0.048   0.000   72.5    58   56.9   72.5  10.65  .0737    0.015   203    7    100.0   10 
 9/05/26 12:10p   58.3   58.4   58.0    97   57.5   5.0     S   0.83   8.0    SE   58.0   58.7   58.4   69.6  30.050  0.00  0.00   770    11.04    860     4.1  0.29   4.4   0.047   0.000   72.5    58   56.9   72.5  10.65  .0737    0.000   202    7    100.0   10 
 9/05/26 12:20p   58.4   58.5   58.2    97   57.6   6.0     S   1.00  10.0   SSE   57.7   58.8   58.1   68.3  30.051  0.00  0.00   840    12.04    914     4.6  0.33   4.8   0.046   0.000   72.5    58   56.9   72.5  10.65  .0737    0.000   204    7    100.0   10 
 9/05/26 12:30p   58.5   58.5   58.4    97   57.7   6.0   SSW   1.00  11.0   SSE   57.8   58.9   58.2   64.6  30.049  0.00  0.00   350     5.02    441     3.5  0.25   4.5   0.045   0.000   72.4    58   56.8   72.3  10.65  .0737    0.000   202    7    100.0   10 
 9/05/26 12:40p   58.5   58.6   58.5    97   57.7   5.0    SW   0.83   8.0   SSE   58.2   58.9   58.6   64.6  30.049  0.00  0.00   332     4.76    485     3.3  0.24   4.3   0.045   0.000   72.5    58   56.9   72.5  10.65  .0737    0.000   203    7    100.0   10 
 9/05/26 12:50p   59.0   59.0   58.5    97   58.2   5.0    SW   0.83   8.0   WSW   58.8   59.4   59.2   69.9  30.052  0.00  0.00   891    12.77    919     5.0  0.36   5.1   0.042   0.000   72.5    58   56.9   72.5  10.65  .0737    0.000   204    7    100.0   10 
 9/05/26  1:00p   59.1   59.2   59.0    97   58.2   4.0    SW   0.67   6.0    SW   59.1   59.5   59.5   70.0  30.051  0.00  0.00   846    12.13    888     4.8  0.34   5.0   0.041   0.000   72.5    58   56.9   72.5  10.65  .0737    0.014   202    7    100.0   10 
 9/05/26  1:10p   59.2   59.4   59.0    97   58.3   4.0    SW   0.67   6.0    SW   59.2   59.6   59.6   71.0  30.050  0.00  0.00   747    10.71    882     4.8  0.34   5.2   0.040   0.000   72.7    58   57.1   72.8  10.64  .0737    0.000   203    7    100.0   10 
 9/05/26  1:20p   58.8   59.1   58.8    97   58.0   4.0    SW   0.67   7.0   WSW   58.8   59.2   59.2   70.1  30.050  0.00  0.00   830    11.90    884     5.1  0.36   5.5   0.043   0.000   72.8    58   57.2   72.9  10.64  .0737    0.000   203    7    100.0   10 
 9/05/26  1:30p   59.5   59.5   58.7    97   58.6   2.0    SW   0.33   5.0    SW   59.5   60.0   60.0   71.2  30.045  0.00  0.00   812    11.64    828     5.2  0.37   5.3   0.038   0.000   72.6    58   57.0   72.6  10.65  .0737    0.000   199    7    100.0   10 
 9/05/26  1:40p   59.3   59.7   59.3    96   58.2   3.0    SW   0.50   4.0    SW   59.3   59.7   59.7   71.1  30.047  0.00  0.00   754    10.81    800     5.2  0.37   5.3   0.040   0.000   72.3    59   57.2   72.3  10.86  .0737    0.000   203    7    100.0   10 
 9/05/26  1:50p   59.7   59.7   59.3    96   58.6   3.0   WSW   0.50   5.0   WSW   59.7   60.1   60.1   71.4  30.046  0.00  0.00   795    11.40    805     5.1  0.36   5.2   0.037   0.000   72.1    59   57.0   72.0  10.87  .0738    0.000   204    7    100.0   10 
 9/05/26  2:00p   59.5   59.7   59.3    96   58.4   3.0   WSW   0.50   5.0   WSW   59.5   59.9   59.9   71.2  30.046  0.00  0.00   734    10.52    784     4.7  0.34   5.0   0.038   0.000   72.2    59   57.1   72.1  10.86  .0738    0.016   202    7    100.0   10 
 9/05/26  2:10p   59.5   59.7   59.2    96   58.4   3.0   WSW   0.50   5.0   WSW   59.5   59.9   59.9   71.0  30.046  0.00  0.00   693     9.93    773     4.6  0.33   4.8   0.038   0.000   72.6    59   57.4   72.7  10.85  .0737    0.000   203    7    100.0   10 
 9/05/26  2:20p   59.8   59.8   59.5    96   58.7   3.0    SW   0.50   5.0    SW   59.8   60.2   60.2   71.3  30.045  0.00  0.00   786    11.27    830     4.8  0.34   4.9   0.036   0.000   72.9    59   57.7   73.2  10.83  .0736    0.000   204    7    100.0   10 
 9/05/26  2:30p   60.1   60.2   59.7    96   59.0   2.0    SW   0.33   3.0    SW   60.1   60.5   60.5   71.8  30.044  0.00  0.00   729    10.45    751     4.6  0.33   4.8   0.034   0.000   73.1    59   57.9   73.4  10.83  .0736    0.000   202    7    100.0   10 
 9/05/26  2:40p   60.7   60.8   60.1    95   59.3   1.0    SW   0.17   3.0    SW   60.7   61.2   61.2   72.5  30.041  0.00  0.00   723    10.36    728     4.5  0.32   4.6   0.030   0.000   73.4    59   58.2   73.8  10.81  .0735    0.000   204    7    100.0   10 
 9/05/26  2:50p   60.4   60.7   60.2    95   59.0   3.0    SW   0.50   5.0    SW   60.4   60.8   60.8   72.0  30.041  0.00  0.00   714    10.24    717     4.3  0.31   4.4   0.032   0.000   73.5    59   58.3   74.0  10.81  .0735    0.000   202    7    100.0   10 
 9/05/26  3:00p   60.0   60.5   59.9    95   58.6   3.0    SW   0.50   5.0    SW   60.0   60.4   60.4   70.1  30.042  0.00  0.00   531     7.61    756     3.5  0.25   4.2   0.035   0.000   73.7    59   58.5   74.2  10.80  .0735    0.014   205    7    100.0   10 
 9/05/26  3:10p   59.9   60.0   59.6    95   58.5   3.0    SW   0.50   4.0    SW   59.9   60.3   60.3   69.5  30.041  0.00  0.00   491     7.04    798     3.6  0.26   4.2   0.035   0.000   73.8    59   58.6   74.3  10.80  .0735    0.000   204    7    100.0   10 
 9/05/26  3:20p   60.4   60.4   59.9    95   59.0   1.0    SW   0.17   4.0    SW   60.4   60.8   60.8   71.1  30.039  0.00  0.00   565     8.10    766     3.4  0.24   4.0   0.032   0.000   73.9    59   58.7   74.5  10.79  .0734    0.000   203    7    100.0   10 
 9/05/26  3:30p   60.0   60.4   59.9    95   58.6   1.0    SW   0.17   3.0    SW   60.0   60.4   60.4   69.5  30.036  0.00  0.00   471     6.75    661     3.2  0.23   3.8   0.035   0.000   74.0    59   58.8   74.6  10.79  .0734    0.000   204    7    100.0   10 
 9/05/26  3:40p   60.4   60.4   59.9    95   59.0   1.0    SW   0.17   3.0    SW   60.4   60.8   60.8   71.6  30.035  0.00  0.00   599     8.59    684     3.3  0.24   3.6   0.032   0.000   74.1    58   58.4   74.6  10.59  .0734    0.000   204    7    100.0   10 
 9/05/26  3:50p   60.2   60.5   60.1    94   58.5   2.0    SW   0.33   3.0    SW   60.2   60.6   60.6   71.6  30.032  0.00  0.00   653     9.36    700     3.2  0.23   3.3   0.033   0.000   74.2    58   58.5   74.7  10.58  .0734    0.000   202    7    100.0   10 
 9/05/26  4:00p   60.2   60.4   60.2    93   58.2   2.0    SW   0.33   4.0    SW   60.2   60.6   60.6   71.5  30.029  0.00  0.00   600     8.60    621     2.9  0.21   3.0   0.033   0.000   74.4    58   58.7   75.0  10.57  .0733    0.012   202    7    100.0   10 
 9/05/26  4:10p   60.4   60.4   60.2    93   58.4   2.0    SW   0.33   3.0    SW   60.4   60.8   60.8   71.6  30.025  0.00  0.00   569     8.16    578     2.6  0.19   2.7   0.032   0.000   74.5    58   58.8   75.1  10.57  .0733    0.000   203    7    100.0   10 
 9/05/26  4:20p   61.2   61.3   60.4    93   59.2   3.0    SW   0.50   4.0    SW   61.2   61.7   61.7   71.1  30.020  0.00  0.00   445     6.38    580     2.2  0.16   2.5   0.026   0.000   74.6    58   58.8   75.2  10.57  .0733    0.000   205    7    100.0   10 
 9/05/26  4:30p   62.3   62.4   61.1    93   60.2   2.0   WSW   0.33   4.0   WSW   62.3   63.0   63.0   73.6  30.018  0.00  0.00   512     7.34    547     2.1  0.15   2.2   0.019   0.000   74.6    57   58.4   75.2  10.37  .0733    0.000   203    7    100.0   10 
 9/05/26  4:40p   63.0   63.1   62.3    92   60.6   2.0   NNW   0.33   4.0     N   63.0   63.7   63.7   74.3  30.015  0.00  0.00   502     7.20    557     1.9  0.14   2.1   0.014   0.000   74.4    57   58.2   74.9  10.37  .0733    0.000   204    7    100.0   10 
 9/05/26  4:50p   63.5   63.7   63.0    92   61.1   2.0     N   0.33   4.0   NNW   63.5   64.3   64.3   74.5  30.015  0.00  0.00   453     6.49    526     1.7  0.12   1.8   0.010   0.000   74.2    57   58.0   74.7  10.38  .0734    0.000   201    7    100.0   10 
 9/05/26  5:00p   63.1   63.6   63.1    91   60.4   3.0     N   0.50   5.0     N   63.1   63.8   63.8   72.1  30.014  0.00  0.00   341     4.89    427     1.3  0.09   1.5   0.013   0.000   74.0    57   57.8   74.4  10.39  .0734    0.010   204    7    100.0   10 
 9/05/26  5:10p   62.4   63.1   62.4    91   59.7   3.0     N   0.50   4.0   NNE   62.4   63.0   63.0   69.8  30.018  0.00  0.00   271     3.88    318     1.1  0.08   1.2   0.018   0.000   74.0    57   57.8   74.4  10.39  .0734    0.000   203    7    100.0   10 
 9/05/26  5:20p   62.4   62.6   62.4    91   59.7   2.0     N   0.33   4.0     N   62.4   63.0   63.0   69.1  30.018  0.00  0.00   239     3.43    269     0.9  0.06   1.0   0.018   0.000   74.0    57   57.8   74.4  10.39  .0734    0.000   201    7    100.0   10 
 9/05/26  5:30p   61.7   62.4   61.7    91   59.0   2.0     N   0.33   4.0     N   61.7   62.2   62.2   66.2  30.020  0.00  0.00   164     2.35    186     0.7  0.05   0.8   0.023   0.000   74.0    57   57.8   74.4  10.39  .0734    0.000   204    7    100.0   10 
 9/05/26  5:40p   61.6   61.8   61.5    91   58.9   2.0     N   0.33   4.0     N   61.6   62.1   62.1   65.9  30.025  0.00  0.00   153     2.19    155     0.6  0.04   0.6   0.024   0.000   74.1    57   57.9   74.5  10.39  .0734    0.000   203    7    100.0   10 
 9/05/26  5:50p   61.2   61.6   61.2    91   58.6   2.0     N   0.33   5.0    NE   61.2   61.6   61.6   65.6  30.026  0.00  0.00   154     2.21    155     0.5  0.04   0.5   0.026   0.000   74.0    57   57.8   74.4  10.39  .0734    0.000   203    7    100.0   10 
 9/05/26  6:00p   61.2   61.2   61.0    90   58.2   2.0   NNE   0.33   4.0     N   61.2   61.6   61.6   65.9  30.028  0.00  0.00   157     2.25    163     0.1  0.01   0.5   0.026   0.000   74.0    57   57.8   74.4  10.39  .0734    0.004   202    7    100.0   10 
 9/05/26  6:10p   61.2   61.3   61.1    90   58.2   2.0   NNE   0.33   4.0    NE   61.2   61.6   61.6   67.1  30.025  0.00  0.00   185     2.65    211     0.0  0.00   0.0   0.026   0.000   73.9    57   57.7   74.3  10.39  .0734    0.000   204    7    100.0   10 
 9/05/26  6:20p   61.7   61.7   61.2    90   58.7   1.0    NE   0.17   4.0   ENE   61.7   62.2   62.2   67.4  30.025  0.00  0.00   171     2.45    207     0.0  0.00   0.0   0.023   0.000   73.9    57   57.7   74.3  10.39  .0734    0.000   202    7    100.0   10 
 9/05/26  6:30p   61.5   62.0   61.5    89   58.2   2.0     N   0.33   4.0   ENE   61.5   61.9   61.9   64.4  30.025  0.00  0.00    98     1.40    135     0.0  0.00   0.0   0.024   0.000   74.0    57   57.8   74.4  10.39  .0734    0.000   202    7    100.0   10 
 9/05/26  6:40p   60.9   61.4   60.9    90   57.9   2.0     N   0.33   4.0     N   60.9   61.3   61.3   62.6  30.025  0.00  0.00    66     0.95     76     0.0  0.00   0.0   0.028   0.000   73.9    57   57.7   74.3  10.39  .0734    0.000   203    7    100.0   10 
 9/05/26  6:50p   60.4   60.9   60.4    90   57.5   2.0   NNE   0.33   4.0    NE   60.4   60.7   60.7   61.4  30.024  0.00  0.00    51     0.73     54     0.0  0.00   0.0   0.032   0.000   74.1    57   57.9   74.5  10.39  .0734    0.000   203    7    100.0   10 
 9/05/26  7:00p   60.6   60.6   60.4    90   57.7   1.0   NNE   0.17   3.0     N   60.6   61.0   61.0   61.5  30.022  0.00  0.00    47     0.67     49     0.0  0.00   0.0   0.031   0.000   74.2    57   58.0   74.7  10.38  .0734    0.002   203    7    100.0   10 
 9/05/26  7:10p   60.7   60.7   60.6    90   57.7   1.0   NNE   0.17   3.0   NNE   60.7   61.1   61.1   59.7  30.018  0.00  0.00    37     0.53     40     0.0  0.00   0.0   0.030   0.000   74.4    57   58.2   74.9  10.37  .0733    0.000   202    7    100.0   10 
 9/05/26  7:20p   60.7   60.7   60.6    90   57.7   1.0   NNE   0.17   3.0   NNE   60.7   61.1   61.1   59.4  30.017  0.00  0.00    27     0.39     32     0.0  0.00   0.0   0.030   0.000   74.4    57   58.2   74.9  10.37  .0733    0.000   199    7    100.0   10 
 9/05/26  7:30p   60.7   60.7   60.6    91   58.1   0.0   NNE   0.00   2.0   NNE   60.7   61.1   61.1   59.2  30.017  0.00  0.00    15     0.22     21     0.0  0.00   0.0   0.030   0.000   74.4    57   58.2   74.9  10.37  .0733    0.000   204    7    100.0   10 
 9/05/26  7:40p   60.4   60.7   60.4    90   57.5   1.0   NNE   0.17   2.0   NNE   60.4   60.7   60.7   58.6  30.015  0.00  0.00     7     0.10     11     0.0  0.00   0.0   0.032   0.000   74.5    57   58.3   75.0  10.37  .0733    0.000   203    7    100.0   10 
 9/05/26  7:50p   60.0   60.4   60.0    91   57.4   1.0     N   0.17   4.0     N   60.0   60.3   60.3   58.0  30.013  0.00  0.00     0     0.00      0     0.0  0.00   0.0   0.035   0.000   74.5    57   58.3   75.0  10.37  .0733    0.000   200    7    100.0   10 
 9/05/26  8:00p   59.6   60.0   59.5    90   56.7   0.0     N   0.00   1.0     N   59.6   59.9   59.9   57.6  30.010  0.00  0.00     0     0.00      0     0.0  0.00   0.0   0.038   0.000   74.5    57   58.3   75.0  10.37  .0733    0.000   203    7    100.0   10 
 9/05/26  8:10p   59.3   59.6   59.3    91   56.7   0.0   ---   0.00   0.0   ---   59.3   59.6   59.6   57.3  30.007  0.00  0.00     0     0.00      0     0.0  0.00   0.0   0.040   0.000   74.5    57   58.3   75.0  10.37  .0733    0.000   203    7    100.0   10 
 9/05/26  8:20p   59.3   59.4   59.2    91   56.7   0.0   ---   0.00   0.0   ---   59.3   59.6   59.6   57.3  30.011  0.00  0.00     0     0.00      0     0.0  0.00   0.0   0.040   0.000   74.5    57   58.3   75.0  10.37  .0733    0.000   202    7    100.0   10 
 9/05/26  8:30p   59.0   59.3   59.0    91   56.4   0.0   ---   0.00   0.0   ---   59.0   59.2   59.2   56.9  30.013  0.00  0.00     0     0.00      0     0.0  0.00   0.0   0.042   0.000   74.5    57   58.3   75.0  10.37  .0733    0.000   202    7    100.0   10 
 9/05/26  8:40p   58.6   59.0   58.5    91   56.0   0.0   ---   0.00   0.0   ---   58.6   58.8   58.8   56.4  30.018  0.00  0.00     0     0.00      0     0.0  0.00   0.0   0.044   0.000   74.5    57   58.3   75.0  10.37  .0733    0.000   201    7    100.0   10 
 9/05/26  8:50p   58.3   58.6   58.3    91   55.7   0.0     N   0.00   1.0     N   58.3   58.5   58.5   56.1  30.018  0.00  0.00     0     0.00      0     0.0  0.00   0.0   0.047   0.000   74.5    57   58.3   75.0  10.37  .0733    0.000   205    7    100.0   10 
 9/05/26  9:00p   58.3   58.4   58.3    91   55.7   0.0     N   0.00   1.0     N   58.3   58.5   58.5   56.1  30.020  0.00  0.00     0     0.00      0     0.0  0.00   0.0   0.047   0.000   74.5    57   58.3   75.0  10.37  .0733    0.000   202    7    100.0   10 
 9/05/26  9:10p   58.1   58.3   58.1    91   55.5   1.0   ENE   0.17   3.0     N   58.1   58.2   58.2   55.8  30.018  0.00  0.00     0     0.00      0     0.0  0.00   0.0   0.048   0.000   74.5    57   58.3   75.0  10.37  .0733    0.000   204    7    100.0   10 
 9/05/26  9:20p   58.0   58.1   58.0    91   55.4   0.0     E   0.00   4.0     E   58.0   58.1   58.1   55.7  30.020  0.00  0.00     0     0.00      0     0.0  0.00   0.0   0.049   0.000   74.4    57   58.2   74.9  10.37  .0733    0.000   204    7    100.0   10 
 9/05/26  9:30p   57.8   58.0   57.7    91   55.2   4.0   ENE   0.67   8.0   ENE   57.8   57.9   57.9   55.5  30.021  0.00  0.00     0     0.00      0     0.0  0.00   0.0   0.050   0.000   74.4    57   58.2   74.9  10.37  .0733    0.000   203    7    100.0   10 
 9/05/26  9:40p   57.6   57.8   57.5    91   55.0   1.0   ENE   0.17   4.0   ENE   57.6   57.7   57.7   55.3  30.022  0.00  0.00     0     0.00      0     0.0  0.00   0.0   0.051   0.000   74.4    57   58.2   74.9  10.37  .0733    0.000   202    7    100.0   10 
 9/05/26  9:50p   57.5   57.6   57.4    92   55.2   1.0     E   0.17   7.0   ESE   57.5   57.7   57.7   55.3  30.020  0.00  0.00     0     0.00      0     0.0  0.00   0.0   0.052   0.000   74.4    57   58.2   74.9  10.37  .0733    0.000   202    7    100.0   10 
 9/05/26 10:00p   57.3   57.5   57.3    92   55.0   1.0     E   0.17   4.0     E   57.3   57.5   57.5   55.1  30.018  0.00  0.00     0     0.00      0     0.0  0.00   0.0   0.053   0.000   74.3    57   58.1   74.8  10.38  .0734    0.000   203    7    100.0   10 
 9/05/26 10:10p   57.4   57.4   57.3    92   55.1   0.0   ESE   0.00   2.0   ESE   57.4   57.6   57.6   55.2  30.022  0.00  0.00     0     0.00      0     0.0  0.00   0.0   0.053   0.000   74.3    57   58.1   74.8  10.38  .0734    0.000   202    7    100.0   10 
 9/05/26 10:20p   57.2   57.4   57.2    91   54.6   0.0   ---   0.00   0.0   ---   57.2   57.3   57.3   54.9  30.020  0.00  0.00     0     0.00      0     0.0  0.00   0.0   0.054   0.000   74.3    57   58.1   74.8  10.38  .0734    0.000   203    7    100.0   10 
 9/05/26 10:30p   56.8   57.2   56.8    91   54.2   0.0   ESE   0.00   2.0   ESE   56.8   56.9   56.9   54.5  30.023  0.00  0.00     0     0.00      0     0.0  0.00   0.0   0.057   0.000   74.3    57   58.1   74.8  10.38  .0734    0.000   201    7    100.0   10 
 9/05/26 10:40p   56.5   56.8   56.5    91   53.9   0.0   ESE   0.00   1.0   ESE   56.5   56.6   56.6   54.1  30.020  0.00  0.00     0     0.00      0     0.0  0.00   0.0   0.059   0.000   74.2    57   58.0   74.7  10.38  .0734    0.000   204    7    100.0   10 
 9/05/26 10:50p   56.2   56.5   56.2    92   53.9   0.0   ---   0.00   0.0   ---   56.2   56.3   56.3   53.8  30.018  0.00  0.00     0     0.00      0     0.0  0.00   0.0   0.061   0.000   74.2    57   58.0   74.7  10.38  .0734    0.000   202    7    100.0   10 
 9/05/26 11:00p   56.2   56.2   56.1    92   53.9   0.0   ---   0.00   0.0   ---   56.2   56.3   56.3   53.8  30.019  0.00  0.00     0     0.00      0     0.0  0.00   0.0   0.061   0.000   74.2    57   58.0   74.7  10.38  .0734    0.000   203    7    100.0   10 
 9/05/26 11:10p   55.9   56.2   55.8    92   53.6   0.0   ---   0.00   0.0   ---   55.9   56.0   56.0   53.5  30.019  0.00  0.00     0     0.00      0     0.0  0.00   0.0   0.063   0.000   74.2    57   58.0   74.7  10.38  .0734    0.000   202    7    100.0   10 
 9/05/26 11:20p   55.7   55.8   55.7    92   53.4   0.0   ---   0.00   0.0   ---   55.7   55.8   55.8   53.3  30.019  0.00  0.00     0     0.00      0     0.0  0.00   0.0   0.065   0.000   74.2    57   58.0   74.7  10.38  .0734    0.000   202    7    100.0   10 
 9/05/26 11:30p   55.5   55.7   55.5    92   53.2   0.0   ESE   0.00   1.0   ESE   55.5   55.6   55.6   53.1  30.017  0.00  0.00     0     0.00      0     0.0  0.00   0.0   0.066   0.000   74.1    57   57.9   74.5  10.39  .0734    0.000   201    7    100.0   10 
 9/05/26 11:40p   55.4   55.6   55.4    92   53.1   0.0   ---   0.00   0.0   ---   55.4   55.5   55.5   53.0  30.014  0.00  0.00     0     0.00      0     0.0  0.00   0.0   0.067   0.000   74.1    57   57.9   74.5  10.39  .0734    0.000   203    7    100.0   10 
 9/05/26 11:50p   55.4   55.5   55.4    92   53.1   0.0   ---   0.00   0.0   ---   55.4   55.5   55.5   53.0  30.014  0.00  0.00     0     0.00      0     0.0  0.00   0.0   0.067   0.000   74.1    57   57.9   74.5  10.39  .0734    0.000   203    7    100.0   10 
 9/06/26 12:00a   55.3   55.4   55.2    93   53.3   0.0   ---   0.00   0.0   ---   55.3   55.5   55.5   53.0  30.012  0.00  0.00     0     0.00      0     0.0  0.00   0.0   0.067   0.000   74.0    57   57.8   74.4  10.39  .0734    0.000   205    7    100.0   10 
 9/06/26 12:10a   55.2   55.3   55.1    93   53.2   0.0   ---   0.00   0.0   ---   55.2   55.4   55.4   52.9  30.009  0.00  0.00     0     0.00      0     0.0  0.00   0.0   0.068   0.000   74.0    57   57.8   74.4  10.39  .0734    0.000   202    7    100.0   10 
 9/06/26 12:20a   55.3   55.3   55.1    93   53.3   0.0   ---   0.00   0.0   ---   55.3   55.5   55.5   53.0  30.009  0.00  0.00     0     0.00      0     0.0  0.00   0.0   0.067   0.000   74.0    57   57.8   74.4  10.39  .0734    0.000   202    7    100.0   10 
 9/06/26 12:30a   55.5   55.6   55.3    93   53.5   0.0   ---   0.00   0.0   ---   55.5   55.7   55.7   53.2  30.006  0.00  0.00     0     0.00      0     0.0  0.00   0.0   0.066   0.000   73.9    57   57.7   74.3  10.39  .0734    0.000   202    7    100.0   10 
 9/06/26 12:40a   55.7   55.8   55.5    93   53.7   0.0   ---   0.00   0.0   ---   55.7   55.9   55.9   53.4  30.004  0.00  0.00     0     0.00      0     0.0  0.00   0.0   0.065   0.000   73.9    57   57.7   74.3  10.39  .0734    0.000   202    7    100.0   10 
 9/06/26 12:50a   55.5   55.8   55.5    93   53.5   0.0   ---   0.00   0.0   ---   55.5   55.7   55.7   53.2  30.007  0.00  0.00     0     0.00      0     0.0  0.00   0.0   0.066   0.000   73.8    57   57.6   74.2  10.40  .0734    0.000   203    7    100.0   10 
 9/06/26  1:00a   55.4   55.5   55.4    93   53.4   0.0   ESE   0.00   2.0   ESE   55.4   55.6   55.6   53.1  30.008  0.00  0.00     0     0.00      0     0.0  0.00   0.0   0.067   0.000   73.8    57   57.6   74.2  10.40  .0734    0.000   204    7    100.0   10 
 9/06/26  1:10a   55.5   55.5   55.4    94   53.8   1.0     E   0.17   2.0   ESE   55.5   55.7   55.7   53.2  30.012  0.00  0.00     0     0.00      0     0.0  0.00   0.0   0.066   0.000   73.8    57   57.6   74.2  10.40  .0734    0.000   202    7    100.0   10 
 9/06/26  1:20a   55.5   55.5   55.4    94   53.8   0.0     E   0.00   2.0     E   55.5   55.7   55.7   53.2  30.016  0.00  0.00     0     0.00      0     0.0  0.00   0.0   0.066   0.000   73.8    57   57.6   74.2  10.40  .0734    0.000   204    7    100.0   10 
 9/06/26  1:30a   55.4   55.5   55.4    94   53.7   0.0     E   0.00   1.0     E   55.4   55.6   55.6   53.1  30.015  0.00  0.00     0     0.00      0     0.0  0.00   0.0   0.067   0.000   73.7    57   57.5   74.0  10.40  .0735    0.000   201    7    100.0   10 
 9/06/26  1:40a   55.1   55.5   55.1    93   53.1   0.0   ---   0.00   0.0   ---   55.1   55.3   55.3   52.8  30.015  0.00  0.00     0     0.00      0     0.0  0.00   0.0   0.069   0.000   73.6    57   57.4   73.9  10.41  .0735    0.000   203    7    100.0   10 
 9/06/26  1:50a   54.8   55.1   54.8    94   53.1   0.0     E   0.00   2.0     E   54.8   55.0   55.0   52.5  30.013  0.00  0.00     0     0.00      0     0.0  0.00   0.0   0.071   0.000   73.6    57   57.4   73.9  10.41  .0735    0.000   205    7    100.0   10 
 9/06/26  2:00a   55.0   55.0   54.7    94   53.3   0.0     E   0.00   1.0     E   55.0   55.2   55.2   52.7  30.015  0.00  0.00     0     0.00      0     0.0  0.00   0.0   0.069   0.000   73.6    57   57.4   73.9  10.41  .0735    0.000   200    7    100.0   10 
 9/06/26  2:10a   55.0   55.1   55.0    94   53.3   0.0     E   0.00   2.0     E   55.0   55.2   55.2   52.7  30.011  0.00  0.00     0     0.00      0     0.0  0.00   0.0   0.069   0.000   73.5    57   57.3   73.8  10.41  .0735    0.000   202    7    100.0   10 
 9/06/26  2:20a   54.8   55.0   54.8    94   53.1   0.0     E   0.00   2.0     E   54.8   55.0   55.0   52.5  30.014  0.00  0.00     0     0.00      0     0.0  0.00   0.0   0.071   0.000   73.5    57   57.3   73.8  10.41  .0735    0.000   201    7    100.0   10 
 9/06/26  2:30a   55.0   55.0   54.8    94   53.3   0.0   ---   0.00   0.0   ---   55.0   55.2   55.2   52.7  30.015  0.00  0.00     0     0.00      0     0.0  0.00   0.0   0.069   0.000   73.5    57   57.3   73.8  10.41  .0735    0.000   202    7    100.0   10 
 9/06/26  2:40a   55.1   55.2   55.0    94   53.4   0.0   ---   0.00   0.0   ---   55.1   55.3   55.3   52.8  30.015  0.00  0.00     0     0.00      0     0.0  0.00   0.0   0.069   0.000   73.4    57   57.2   73.7  10.41  .0735    0.000   203    7    100.0   10 
 9/06/26  2:50a   55.3   55.4   55.1    94   53.6   0.0   ---   0.00   0.0   ---   55.3   55.5   55.5   53.0  30.016  0.00  0.00     0     0.00      0     0.0  0.00   0.0   0.067   0.000   73.4    57   57.2   73.7  10.41  .0735    0.000   201    7    100.0   10 
 9/06/26  3:00a   55.3   55.4   55.3    94   53.6   0.0   ---   0.00   0.0   ---   55.3   55.5   55.5   53.0  30.016  0.00  0.00     0     0.00      0     0.0  0.00   0.0   0.067   0.000   73.3    57   57.1   73.5  10.42  .0735    0.000   203    7    100.0   10 
 9/06/26  3:10a   55.4   55.4   55.3    94   53.7   0.0   ---   0.00   0.0   ---   55.4   55.6   55.6   53.1  30.016  0.00  0.00     0     0.00      0     0.0  0.00   0.0   0.067   0.000   73.3    57   57.1   73.5  10.42  .0735    0.000   204    7    100.0   10 
 9/06/26  3:20a   55.5   55.5   55.3    94   53.8   0.0   ---   0.00   0.0   ---   55.5   55.7   55.7   53.2  30.012  0.00  0.00     0     0.00      0     0.0  0.00   0.0   0.066   0.000   73.3    57   57.1   73.5  10.42  .0735    0.000   203    7    100.0   10 
 9/06/26  3:30a   55.5   55.6   55.4    94   53.8   0.0   ---   0.00   0.0   ---   55.5   55.7   55.7   53.2  30.012  0.00  0.00     0     0.00      0     0.0  0.00   0.0   0.066   0.000   73.3    57   57.1   73.5  10.42  .0735    0.000   203    7    100.0   10 
 9/06/26  3:40a   55.5   55.5   55.4    94   53.8   0.0   ---   0.00   0.0   ---   55.5   55.7   55.7   53.2  30.011  0.00  0.00     0     0.00      0     0.0  0.00   0.0   0.066   0.000   73.3    57   57.1   73.5  10.42  .0735    0.000   205    7    100.0   10 
 9/06/26  3:50a   55.6   55.6   55.5    95   54.2   0.0   ---   0.00   0.0   ---   55.6   55.8   55.8   53.4  30.010  0.00  0.00     0     0.00      0     0.0  0.00   0.0   0.065   0.000   73.2    57   57.1   73.4  10.42  .0735    0.000   204    7    100.0   10 
 9/06/26  4:00a   55.6   55.7   55.6    95   54.2   0.0   ---   0.00   0.0   ---   55.6   55.8   55.8   53.4  30.007  0.00  0.00     0     0.00      0     0.0  0.00   0.0   0.065   0.000   73.2    57   57.1   73.4  10.42  .0735    0.000   202    7    100.0   10 
 9/06/26  4:10a   55.8   55.8   55.6    95   54.4   0.0   ---   0.00   0.0   ---   55.8   56.0   56.0   53.6  30.008  0.00  0.00     0     0.00      0     0.0  0.00   0.0   0.064   0.000   73.2    57   57.1   73.4  10.42  .0735    0.000   203    7    100.0   10 
 9/06/26  4:20a   55.8   55.9   55.8    95   54.4   0.0   ---   0.00   0.0   ---   55.8   56.0   56.0   53.6  30.012  0.00  0.00     0     0.00      0     0.0  0.00   0.0   0.064   0.000   73.1    57   57.0   73.3  10.43  .0736    0.000   205    7    100.0   10 
 9/06/26  4:30a   55.6   55.9   55.6    95   54.2   0.0     E   0.00   2.0     E   55.6   55.8   55.8   53.4  30.012  0.00  0.00     0     0.00      0     0.0  0.00   0.0   0.065   0.000   73.1    57   57.0   73.3  10.43  .0736    0.000   204    7    100.0   10 
 9/06/26  4:40a   55.6   55.7   55.5    95   54.2   0.0     E   0.00   2.0     E   55.6   55.8   55.8   53.4  30.013  0.00  0.00     0     0.00      0     0.0  0.00   0.0   0.065   0.000   73.1    57   57.0   73.3  10.43  .0736    0.000   202    7    100.0   10 
 9/06/26  4:50a   55.6   55.7   55.6    95   54.2   0.0     E   0.00   1.0     E   55.6   55.8   55.8   53.4  30.013  0.00  0.00     0     0.00      0     0.0  0.00   0.0   0.065   0.000   73.1    57   57.0   73.3  10.43  .0736    0.000   201    7    100.0   10 
 9/06/26  5:00a   55.5   55.7   55.5    95   54.1   0.0     E   0.00   3.0     E   55.5   55.7   55.7   53.3  30.016  0.00  0.00     0     0.00      0     0.0  0.00   0.0   0.066   0.000   73.1    57   57.0   73.3  10.43  .0736    0.000   204    7    100.0   10 
 9/06/26  5:10a   55.6   55.6   55.4    95   54.2   0.0     E   0.00   3.0     E   55.6   55.8   55.8   53.4  30.014  0.00  0.00     0     0.00      0     0.0  0.00   0.0   0.065   0.000   73.0    57   56.9   73.2  10.43  .0736    0.000   202    7    100.0   10 
 9/06/26  5:20a   55.6   55.6   55.5    95   54.2   0.0     E   0.00   2.0     E   55.6   55.8   55.8   53.4  30.014  0.00  0.00     0     0.00      0     0.0  0.00   0.0   0.065   0.000   73.0    57   56.9   73.2  10.43  .0736    0.000   202    7    100.0   10 
 9/06/26  5:30a   55.7   55.8   55.6    95   54.3   0.0     E   0.00   2.0     E   55.7   55.9   55.9   53.5  30.012  0.00  0.00     0     0.00      0     0.0  0.00   0.0   0.065   0.000   73.0    57   56.9   73.2  10.43  .0736    0.000   202    7    100.0   10 
 9/06/26  5:40a   56.0   56.0   55.7    95   54.6   2.0     E   0.33   5.0     E   56.0   56.2   56.2   53.8  30.013  0.00  0.00     0     0.00      0     0.0  0.00   0.0   0.063   0.000   73.0    57   56.9   73.2  10.43  .0736    0.000   203    7    100.0   10 
 9/06/26  5:50a   55.9   56.0   55.9    95   54.5   1.0     E   0.17   5.0   ENE   55.9   56.1   56.1   53.7  30.014  0.00  0.00     0     0.00      0     0.0  0.00   0.0   0.063   0.000   72.9    57   56.8   73.0  10.43  .0736    0.000   202    7    100.0   10 
 9/06/26  6:00a   56.0   56.1   55.9    95   54.6   1.0     E   0.17   4.0     E   56.0   56.2   56.2   53.8  30.011  0.00  0.00     0     0.00      0     0.0  0.00   0.0   0.063   0.000   72.9    57   56.8   73.0  10.43  .0736    0.000   201    7    100.0   10 
 9/06/26  6:10a   56.2   56.2   56.0    95   54.8   1.0    SE   0.17   3.0    SE   56.2   56.4   56.4   54.0  30.013  0.00  0.00     0     0.00      0     0.0  0.00   0.0   0.061   0.000   72.9    57   56.8   73.0  10.43  .0736    0.000   203    7    100.0   10 
 9/06/26  6:20a   56.1   56.2   56.0    95   54.7   1.0   SSE   0.17   3.0   SSE   56.1   56.3   56.3   53.9  30.014  0.00  0.00     0     0.00      0     0.0  0.00   0.0   0.062   0.000   72.9    57   56.8   73.0  10.43  .0736    0.000   200    7    100.0   10 
 9/06/26  6:30a   56.4   56.4   56.1    95   55.0   0.0   SSE   0.00   1.0   SSE   56.4   56.6   56.6   54.2  30.015  0.03  1.09     0     0.00      0     0.0  0.00   0.0   0.060   0.000   72.8    57   56.7   72.9  10.44  .0736    0.000   203    7    100.0   10 
 9/06/26  6:40a   56.6   56.7   56.4    95   55.2   0.0   SSE   0.00   2.0   SSE   56.6   56.8   56.8   54.4  30.018  0.07  0.90     0     0.00      0     0.0  0.00   0.0   0.058   0.000   72.8    57   56.7   72.9  10.44  .0736    0.000   203    7    100.0   10 
 9/06/26  6:50a   56.4   56.7   56.4    95   55.0   0.0   SSE   0.00   2.0    SE   56.4   56.6   56.6   54.2  30.018  0.05  0.51     0     0.00      0     0.0  0.00   0.0   0.060   0.000   72.8    57   56.7   72.9  10.44  .0736    0.000   203    7    100.0   10 
 9/06/26  7:00a   56.2   56.4   56.1    95   54.8   0.0    SE   0.00   2.0    SE   56.2   56.4   56.4   54.0  30.020  0.01  0.29     0     0.00      0     0.0  0.00   0.0   0.061   0.000   72.8    57   56.7   72.9  10.44  .0736    0.000   201    7    100.0   10 
 9/06/26  7:10a   56.5   56.5   56.1    96   55.4   1.0   NNE   0.17   5.0   NNE   56.5   56.7   56.7   54.3  30.023  0.04  0.54     0     0.00      0     0.0  0.00   0.0   0.059   0.000   72.8    57   56.7   72.9  10.44  .0736    0.000   202    7    100.0   10 
 9/06/26  7:20a   56.8   56.8   56.5    96   55.7   1.0   ENE   0.17   3.0    NE   56.8   57.0   57.0   55.1  30.029  0.03  0.54     0     0.00      0     0.0  0.00   0.0   0.057   0.000   72.7    57   56.6   72.7  10.44  .0737    0.000   201    7    100.0   10 
 9/06/26  7:30a   56.9   56.9   56.7    96   55.8   0.0    SE   0.00   2.0    SE   56.9   57.1   57.1   55.2  30.028  0.03  0.24     0     0.00      0     0.0  0.00   0.0   0.056   0.000   72.7    57   56.6   72.7  10.44  .0737    0.000   201    7    100.0   10 
 9/06/26  7:40a   56.9   57.0   56.9    96   55.8   0.0    SE   0.00   2.0    SE   56.9   57.1   57.1   55.3  30.032  0.14  1.79     2     0.03      7     0.0  0.00   0.0   0.056   0.000   72.7    57   56.6   72.7  10.44  .0737    0.000   203    7    100.0   10 
 9/06/26  7:50a   56.7   56.9   56.7    96   55.6   1.0     E   0.17   4.0   ENE   56.7   56.9   56.9   55.4  30.030  0.02  0.39     9     0.13     11     0.0  0.00   0.0   0.058   0.000   72.7    57   56.6   72.7  10.44  .0737    0.000   203    7    100.0   10 
 9/06/26  8:00a   56.7   56.8   56.7    96   55.6   0.0     E   0.00   2.0     E   56.7   56.9   56.9   55.7  30.027  0.02  0.20    17     0.24     28     0.0  0.00   0.0   0.058   0.000   72.7    57   56.6   72.7  10.44  .0737    0.000   202    7    100.0   10 
 9/06/26  8:10a   56.6   56.8   56.6    96   55.5   0.0     E   0.00   2.0     E   56.6   56.8   56.8   57.1  30.030  0.01  0.20    51     0.73     65     0.0  0.00   0.0   0.058   0.000   72.6    57   56.5   72.6  10.45  .0737    0.000   205    7    100.0   10 
 9/06/26  8:20a   56.7   56.8   56.6    96   55.6   1.0     E   0.17   2.0     E   56.7   56.9   56.9   58.2  30.031  0.00  0.04    77     1.10     84     0.0  0.00   0.0   0.058   0.000   72.7    57   56.6   72.7  10.44  .0737    0.000   204    7    100.0   10 
 9/06/26  8:30a   56.7   56.8   56.6    96   55.6   1.0     E   0.17   3.0     E   56.7   56.9   56.9   59.1  30.031  0.00  0.00   103     1.48    137     0.0  0.00   0.0   0.058   0.000   72.7    57   56.6   72.7  10.44  .0737    0.000   200    7    100.0   10 
 9/06/26  8:40a   56.9   56.9   56.6    96   55.8   0.0     S   0.00   2.0     S   56.9   57.1   57.1   61.3  30.036  0.00  0.00   165     2.37    174     0.0  0.00   0.0   0.056   0.000   72.7    57   56.6   72.7  10.44  .0737    0.000   202    7    100.0   10 
 9/06/26  8:50a   57.0   57.1   56.8    96   55.9   1.0     S   0.17   3.0     S   57.0   57.2   57.2   61.9  30.032  0.01  0.00   188     2.70    207     0.3  0.02   0.5   0.056   0.000   72.7    57   56.6   72.7  10.44  .0737    0.000   205    7    100.0   10 
 9/06/26  9:00a   57.2   57.3   57.0    97   56.4   2.0     S   0.33   4.0     S   57.2   57.5   57.5   63.5  30.035  0.01  0.05   233     3.34    283     0.6  0.04   0.6   0.054   0.000   72.8    57   56.7   72.9  10.44  .0737    0.003   202    7    100.0   10 
 9/06/26  9:10a   57.3   57.3   57.1    97   56.5   4.0     S   0.67   9.0     S   57.3   57.6   57.6   63.8  30.034  0.00  0.05   247     3.54    295     0.7  0.05   0.9   0.053   0.000   72.9    57   56.8   73.0  10.43  .0736    0.000   199    7    100.0   10 
 9/06/26  9:20a   57.1   57.3   57.1    97   56.3   8.0   SSW   1.33  12.0   SSE   55.0   57.4   55.3   59.9  30.034  0.00  0.00   211     3.02    341     0.9  0.06   1.1   0.055   0.000   72.9    57   56.8   73.0  10.43  .0736    0.000   204    7    100.0   10 
 9/06/26  9:30a   56.9   57.0   56.9    97   56.1   8.0     S   1.33  12.0   SSE   54.8   57.2   55.1   59.2  30.039  0.00  0.00   196     2.81    260     0.9  0.06   1.1   0.056   0.000   73.0    57   56.9   73.2  10.43  .0736    0.000   202    7    100.0   10 
 9/06/26  9:40a   57.1   57.3   57.0    97   56.3   7.0     S   1.17  10.0   SSE   55.7   57.4   56.0   62.8  30.042  0.00  0.00   304     4.36    466     1.0  0.07   1.3   0.055   0.000   73.1    57   57.0   73.3  10.43  .0736    0.000   202    7    100.0   10 
 9/06/26  9:50a   57.3   57.3   57.0    97   56.5   6.0     S   1.00  10.0   SSE   56.4   57.6   56.7   59.2  30.043  0.00  0.00   140     2.01    165     0.7  0.05   0.8   0.053   0.000   73.1    57   57.0   73.3  10.43  .0736    0.000   203    7    100.0   10 
 9/06/26 10:00a   57.2   57.3   57.2    97   56.4   6.0     S   1.00  10.0   SSE   56.2   57.5   56.5   57.8  30.048  0.00  0.00   106     1.52    134     0.5  0.04   0.7   0.054   0.000   73.1    57   57.0   73.3  10.43  .0736    0.004   202    7    100.0   10 
 9/06/26 10:10a   57.4   57.4   57.2    97   56.6   5.0     S   0.83   8.0   ESE   56.9   57.7   57.2   57.5  30.050  0.01  0.00    73     1.05     81     0.0  0.00   0.0   0.053   0.000   73.1    57   57.0   73.3  10.43  .0736    0.000   202    7    100.0   10 
 9/06/26 10:20a   57.4   57.4   57.3    97   56.6   4.0     S   0.67   9.0   SSE   57.4   57.7   57.7   57.5  30.051  0.05  0.67    60     0.86     63     0.0  0.00   0.0   0.053   0.000   73.1    57   57.0   73.3  10.43  .0736    0.000   204    7    100.0   10 
 9/06/26 10:30a   57.3   57.4   57.3    97   56.5   5.0     S   0.83   9.0   SSE   56.8   57.6   57.1   57.6  30.055  0.00  0.05    84     1.20    107     0.4  0.03   0.7   0.053   0.000   73.0    57   56.9   73.2  10.43  .0737    0.000   202    7    100.0   10 
 9/06/26 10:40a   57.3   57.3   57.2    98   56.7   7.0     S   1.17  11.0   SSE   56.0   57.6   56.3   56.8  30.057  0.00  0.00    85     1.22     98     0.6  0.04   0.7   0.053   0.000   73.1    57   57.0   73.3  10.43  .0737    0.000   205    7    100.0   10 
Email: AdamSPAM@StormwatchersRetreat.com (To send me email remove the word 'SPAM' from my email address.)